This is the latest recevied weather packets stored in our database for station/object OE3AOG-10. If no packets are shown the sender has not sent any weather packets the latest 10 day(s).
| Time | Temp. | Humidity | Pressure | Rain* | Wind** | Luminosity | Snow |
|---|---|---|---|---|---|---|---|
| 1777971272 | 21.67° C | 42% | 1010.5 hPa | - | - | - | - |
| 1777967672 | 20.56° C | 47% | 1010.7 hPa | - | - | - | - |
| 1777964071 | 16.67° C | 54% | 1011.1 hPa | - | - | - | - |
| 1777960471 | 13.89° C | 55% | 1010.9 hPa | - | - | - | - |
| 1777956871 | 13.33° C | 56% | 1010.8 hPa | - | - | - | - |
| 1777953270 | 11.67° C | 56% | 1010.7 hPa | - | - | - | - |
| 1777949672 | 11.67° C | 54% | 1010.9 hPa | - | - | - | - |
| 1777946072 | 12.22° C | 52% | 1011.2 hPa | - | - | - | - |
| 1777942471 | 13.33° C | 48% | 1011.3 hPa | - | - | - | - |
| 1777938871 | 15° C | 44% | 1011.8 hPa | - | - | - | - |
| 1777935271 | 16.67° C | 41% | 1012 hPa | - | - | - | - |
| 1777931671 | 18.89° C | 37% | 1012.4 hPa | - | - | - | - |
| 1777928070 | 19.44° C | 38% | 1012.6 hPa | - | - | - | - |
| 1777924470 | 19.44° C | 34% | 1012.9 hPa | - | - | - | - |
| 1777920870 | 21.11° C | 31% | 1012.8 hPa | - | - | - | - |
| 1777917270 | 23.33° C | 27% | 1012.4 hPa | - | - | - | - |
| 1777913672 | 25° C | 23% | 1012.4 hPa | - | - | - | - |
| 1777910069 | 26.11° C | 21% | 1012.4 hPa | - | - | - | - |
| 1777906471 | 28.33° C | 19% | 1012.8 hPa | - | - | - | - |
| 1777902870 | 30° C | 18% | 1013.4 hPa | - | - | - | - |
| 1777899270 | 30.56° C | 20% | 1014.3 hPa | - | - | - | - |
| 1777895670 | 30.56° C | 23% | 1014.8 hPa | - | - | - | - |
| 1777892069 | 30° C | 25% | 1015.5 hPa | - | - | - | - |
| 1777888468 | 27.78° C | 30% | 1016.1 hPa | - | - | - | - |
| 1777884870 | 25.56° C | 36% | 1016.8 hPa | - | - | - | - |
* Rain since midnight (hover to see other rain measurements)
** Current wind speed in m/s (hover to see current wind gust speed)